Time;durP1;ratioP1;P1;durP2;ratioP2;P2;SDS_P1;SDS_P2;PMS_P1;PMS_P2;Temp;Humidity;BMP_temperature;BMP_pressure;BME280_temperature;BME280_humidity;BME280_pressure;Samples;Min_cycle;Max_cycle;Signal;HPM_P1;HPM_P2
2022/03/23 07:58:56;;;;;;;40.13;29.17;;;;;;;9.19;54.34;102953.75;5322221;27;20331;-69
2022/03/23 08:01:27;;;;;;;39.17;29.30;;;;;;;9.20;53.67;102957.38;5298975;28;20430;-68
2022/03/23 08:04:00;;;;;;;37.95;29.77;;;;;;;9.34;53.78;102958.94;5299219;28;20925;-70
2022/03/23 08:06:35;;;;;;;41.03;28.85;;;;;;;9.39;53.37;102963.78;5300401;28;20050;-68
2022/03/23 08:09:06;;;;;;;38.70;29.17;;;;;;;9.35;52.81;102958.69;5287247;28;20035;-70
2022/03/23 08:11:38;;;;;;;41.30;28.80;;;;;;;9.49;52.34;102959.38;5287610;28;20025;-68
2022/03/23 08:14:09;;;;;;;38.25;29.85;;;;;;;9.57;52.97;102950.75;5279911;28;20532;-69
2022/03/23 08:16:40;;;;;;;42.58;29.50;;;;;;;9.71;53.39;102961.69;5279218;28;20044;-69
2022/03/23 08:19:11;;;;;;;39.67;30.52;;;;;;;9.76;52.09;102947.97;5299770;28;20044;-69
2022/03/23 08:21:43;;;;;;;34.90;28.48;;;;;;;9.87;51.88;102949.97;5300661;28;20017;-69
2022/03/23 08:24:14;;;;;;;36.00;28.50;;;;;;;9.93;52.68;102957.34;5297696;28;20085;-68
2022/03/23 08:26:47;;;;;;;33.95;28.27;;;;;;;10.07;50.80;102960.75;5298718;28;20020;-70
2022/03/23 08:29:19;;;;;;;50.30;30.45;;;;;;;10.15;50.49;102956.81;5290466;28;20056;-72
2022/03/23 08:31:50;;;;;;;35.88;29.20;;;;;;;10.25;49.82;102959.88;5285173;28;20403;-73
2022/03/23 08:34:21;;;;;;;36.17;27.20;;;;;;;10.30;49.93;102951.72;5285645;28;20109;-73
2022/03/23 08:36:53;;;;;;;51.30;43.38;;;;;;;10.43;50.00;102953.44;5281377;28;20029;-73
2022/03/23 08:39:24;;;;;;;33.67;27.33;;;;;;;10.48;49.02;102949.94;5312509;28;20024;-74
2022/03/23 08:41:56;;;;;;;65.85;50.92;;;;;;;10.59;48.84;102951.94;5300601;28;20040;-73
2022/03/23 08:44:27;;;;;;;43.42;33.03;;;;;;;10.63;49.10;102954.00;5281973;28;20028;-72
2022/03/23 08:46:59;;;;;;;40.03;28.65;;;;;;;10.71;49.10;102961.13;5299793;28;20036;-73
2022/03/23 08:49:30;;;;;;;34.28;28.35;;;;;;;10.74;48.46;102959.78;5299944;28;20023;-72
2022/03/23 08:52:02;;;;;;;36.25;29.23;;;;;;;10.80;48.44;102956.03;5299123;28;20032;-73
2022/03/23 08:54:33;;;;;;;48.00;35.97;;;;;;;10.85;48.78;102957.00;5299587;28;20028;-73
2022/03/23 08:57:04;;;;;;;37.70;30.73;;;;;;;11.01;48.25;102955.44;5288901;28;20109;-74
2022/03/23 08:59:35;;;;;;;37.97;28.75;;;;;;;11.10;47.84;102953.16;5299780;28;20028;-73
2022/03/23 09:02:07;;;;;;;43.50;29.27;;;;;;;11.26;47.59;102957.13;5308457;28;20033;-73
2022/03/23 09:04:38;;;;;;;40.00;29.00;;;;;;;11.31;47.37;102960.88;5299753;28;20036;-73
2022/03/23 09:07:09;;;;;;;41.08;28.70;;;;;;;11.46;47.50;102959.53;5299062;28;20082;-73
2022/03/23 09:09:41;;;;;;;34.40;27.17;;;;;;;11.56;45.98;102958.91;5289231;28;20162;-73
2022/03/23 09:12:15;;;;;;;35.40;27.08;;;;;;;11.74;45.14;102965.13;5285936;28;20028;-73
2022/03/23 09:14:46;;;;;;;36.35;27.73;;;;;;;11.87;45.52;102965.97;5289231;28;20024;-75
2022/03/23 09:17:17;;;;;;;41.25;28.95;;;;;;;11.92;45.01;102961.38;5297901;28;20032;-72
2022/03/23 09:19:49;;;;;;;38.50;28.50;;;;;;;12.21;45.26;102963.31;5285578;28;20029;-72
2022/03/23 09:22:21;;;;;;;30.95;25.10;;;;;;;12.36;47.11;102964.41;5285905;28;20021;-70
2022/03/23 09:24:52;;;;;;;30.75;25.40;;;;;;;12.34;41.12;102961.03;5301437;28;20035;-70
2022/03/23 09:27:26;;;;;;;31.08;23.73;;;;;;;12.52;44.94;102959.97;5295420;28;20025;-70
2022/03/23 09:29:58;;;;;;;28.33;21.63;;;;;;;12.56;40.19;102955.59;5296380;28;20115;-70
2022/03/23 09:32:29;;;;;;;32.33;23.13;;;;;;;12.61;38.61;102964.03;5302557;28;20111;-73
2022/03/23 09:35:00;;;;;;;29.00;24.08;;;;;;;12.71;41.43;102957.81;5293151;28;20024;-73
2022/03/23 09:37:50;;;;;;;30.40;23.55;;;;;;;12.89;40.73;102953.91;5296978;28;20035;-73
2022/03/23 09:40:31;;;;;;;28.02;23.80;;;;;;;12.90;39.55;102961.16;5289580;28;20483;-73
2022/03/23 09:43:08;;;;;;;29.08;23.70;;;;;;;12.99;38.86;102962.44;5289836;28;20093;-68
2022/03/23 09:45:48;;;;;;;31.73;24.42;;;;;;;13.10;38.69;102955.06;5299873;28;20020;-69
2022/03/23 09:48:26;;;;;;;29.40;24.23;;;;;;;13.21;38.06;102961.63;5291194;28;20028;-71
2022/03/23 09:51:01;;;;;;;30.98;23.05;;;;;;;13.28;37.75;102962.34;5289355;28;20025;-69
2022/03/23 09:53:33;;;;;;;34.10;24.45;;;;;;;13.44;37.77;102969.78;5300181;28;20439;-69
2022/03/23 09:56:04;;;;;;;32.80;23.42;;;;;;;13.48;39.31;102962.63;5302756;28;20218;-68
2022/03/23 09:58:36;;;;;;;31.92;24.95;;;;;;;13.56;38.38;102963.28;5299398;28;20542;-68
2022/03/23 10:01:29;;;;;;;30.13;26.13;;;;;;;13.58;38.83;102966.66;5294706;28;20026;-68
2022/03/23 10:04:09;;;;;;;33.40;24.45;;;;;;;13.72;37.52;102965.16;5304098;28;20032;-69
2022/03/23 10:07:03;;;;;;;28.95;25.63;;;;;;;13.76;39.35;102963.53;5285331;28;20525;-70
2022/03/23 10:10:12;;;;;;;30.10;24.55;;;;;;;13.87;38.16;102965.34;5284044;28;20029;-69
2022/03/23 10:13:34;;;;;;;31.20;24.90;;;;;;;14.04;38.54;102967.22;5284739;28;20036;-68
2022/03/23 10:16:43;;;;;;;33.25;26.40;;;;;;;14.15;38.07;102966.22;5287359;28;20040;-69
2022/03/23 10:19:15;;;;;;;27.83;24.25;;;;;;;14.31;38.19;102973.63;5284114;28;20025;-69
2022/03/23 10:21:46;;;;;;;30.00;25.52;;;;;;;14.34;36.50;102963.88;5289441;28;20058;-69
2022/03/23 10:24:17;;;;;;;37.22;26.42;;;;;;;14.28;37.01;102967.75;5287084;28;20013;-70
2022/03/23 10:26:49;;;;;;;29.10;24.77;;;;;;;14.33;36.90;102967.78;5298556;28;20035;-69
2022/03/23 10:29:24;;;;;;;28.95;25.02;;;;;;;14.31;37.22;102970.00;5318395;28;20286;-68
2022/03/23 10:32:03;;;;;;;31.10;26.77;;;;;;;14.38;37.04;102969.81;5291472;28;20039;-68
2022/03/23 10:34:38;;;;;;;37.13;26.23;;;;;;;14.51;36.76;102966.56;5305388;28;20069;-68
2022/03/23 10:37:15;;;;;;;38.40;28.08;;;;;;;14.73;37.42;102956.19;5304301;28;20477;-69
2022/03/23 10:39:48;;;;;;;35.03;24.05;;;;;;;14.65;36.08;102953.91;5323308;28;20039;-69
2022/03/23 10:42:21;;;;;;;28.67;23.38;;;;;;;14.79;36.84;102959.88;5290738;28;20162;-69
2022/03/23 10:45:03;;;;;;;31.73;23.20;;;;;;;14.93;35.94;102961.09;5299544;28;20040;-71
2022/03/23 10:47:36;;;;;;;28.77;24.13;;;;;;;14.98;35.50;102951.91;5301404;28;20031;-69
2022/03/23 10:50:17;;;;;;;29.17;24.05;;;;;;;15.04;34.80;102953.63;5284149;28;20035;-71
2022/03/23 10:53:02;;;;;;;27.92;23.13;;;;;;;15.19;35.51;102948.16;5283000;28;20053;-70
2022/03/23 10:55:38;;;;;;;31.55;23.48;;;;;;;15.39;34.39;102952.16;5284176;28;20052;-70
2022/03/23 10:58:12;;;;;;;36.90;25.27;;;;;;;15.42;33.61;102951.63;5292467;28;20048;-70
2022/03/23 11:00:43;;;;;;;67.82;54.38;;;;;;;15.65;33.19;102953.16;5298460;28;20064;-70
2022/03/23 11:03:15;;;;;;;26.48;22.63;;;;;;;15.62;34.33;102946.13;5283146;28;20063;-70
2022/03/23 11:05:48;;;;;;;29.92;23.50;;;;;;;15.65;33.46;102945.59;5282289;28;20074;-69
2022/03/23 11:08:22;;;;;;;26.27;22.65;;;;;;;15.79;32.10;102945.94;5292007;28;20036;-71
2022/03/23 11:16:49;;;;;;;27.30;21.00;;;;;;;15.99;32.40;102942.38;5290714;28;20036;-70
2022/03/23 11:19:23;;;;;;;26.67;23.00;;;;;;;16.04;31.36;102936.78;5298854;28;20470;-70
2022/03/23 11:22:01;;;;;;;24.42;21.25;;;;;;;15.90;31.29;102937.59;5303613;28;20016;-69
2022/03/23 11:24:45;;;;;;;26.70;21.55;;;;;;;16.08;31.40;102937.94;5304684;28;20363;-70
2022/03/23 11:27:18;;;;;;;30.48;21.05;;;;;;;16.23;30.66;102941.84;5303398;28;20020;-71
2022/03/23 11:29:51;;;;;;;25.77;19.92;;;;;;;16.33;29.92;102930.69;5291316;28;20028;-70
2022/03/23 11:32:27;;;;;;;27.10;20.70;;;;;;;16.25;30.49;102936.84;5297317;28;20028;-70
2022/03/23 11:35:01;;;;;;;33.28;23.60;;;;;;;16.45;30.75;102939.66;5303819;28;20034;-70
2022/03/23 11:37:37;;;;;;;28.00;22.67;;;;;;;16.34;30.89;102937.13;5290605;28;20026;-71
2022/03/23 11:40:09;;;;;;;22.88;19.67;;;;;;;16.52;29.86;102930.97;5292890;28;20028;-71
2022/03/23 11:42:41;;;;;;;23.45;19.25;;;;;;;16.71;30.19;102934.06;5292531;28;20035;-70
2022/03/23 11:45:14;;;;;;;27.33;21.70;;;;;;;16.75;29.41;102935.19;5287302;28;20028;-70
2022/03/23 11:47:56;;;;;;;26.48;20.83;;;;;;;16.77;29.21;102927.34;5303779;28;20076;-70
2022/03/23 11:50:33;;;;;;;24.77;21.60;;;;;;;16.83;29.46;102931.84;5303227;28;20426;-72
2022/03/23 11:53:26;;;;;;;25.05;20.75;;;;;;;16.84;28.80;102921.47;5303544;28;20028;-70
2022/03/23 11:55:59;;;;;;;21.75;18.52;;;;;;;16.88;29.02;102917.81;5303676;28;20400;-70
2022/03/23 11:58:36;;;;;;;22.58;19.35;;;;;;;16.99;29.01;102924.25;5303730;28;20444;-70
2022/03/23 12:01:14;;;;;;;25.10;20.95;;;;;;;17.13;29.75;102916.94;5286864;28;20028;-71
2022/03/23 12:04:01;;;;;;;24.85;19.48;;;;;;;17.30;28.36;102913.78;5282610;28;20044;-71
2022/03/23 12:06:44;;;;;;;30.98;22.08;;;;;;;17.41;27.69;102913.75;5295209;28;20036;-71
2022/03/23 12:09:28;;;;;;;28.90;23.05;;;;;;;17.33;29.16;102907.63;5302967;28;20032;-70
2022/03/23 12:12:02;;;;;;;26.73;21.77;;;;;;;17.20;28.49;102905.41;5303992;28;20550;-70
2022/03/23 12:14:35;;;;;;;89.43;76.40;;;;;;;17.55;28.50;102898.00;5304058;28;20095;-69
2022/03/23 12:17:10;;;;;;;53.67;44.45;;;;;;;17.68;27.81;102897.38;5302921;28;20051;-71
2022/03/23 12:20:15;;;;;;;27.83;23.80;;;;;;;17.74;29.30;102898.16;5302617;28;20035;-70
2022/03/23 12:22:55;;;;;;;29.70;23.15;;;;;;;17.79;28.54;102899.03;5252654;28;20094;-71
2022/03/23 12:25:41;;;;;;;28.77;22.08;;;;;;;17.76;27.77;102896.75;5281412;28;20035;-70
2022/03/23 12:28:31;;;;;;;;;;;;;;;17.86;27.38;102892.25;5283079;28;20484;-71
2022/03/23 12:31:10;;;;;;;22.40;18.20;;;;;;;17.77;27.02;102895.66;5281689;28;19919;-70
2022/03/23 12:34:12;;;;;;;20.80;18.58;;;;;;;17.92;26.91;102891.09;5282637;28;20025;-71
2022/03/23 12:36:56;;;;;;;22.23;19.85;;;;;;;17.90;26.68;102888.59;5282983;28;20040;-70
2022/03/23 12:39:44;;;;;;;25.13;20.92;;;;;;;17.91;26.53;102892.22;5314043;28;20352;-69
2022/03/23 12:42:18;;;;;;;34.35;30.02;;;;;;;18.00;26.33;102896.13;5287216;28;20024;-69
2022/03/23 12:45:03;;;;;;;26.95;24.05;;;;;;;18.01;26.40;102886.56;5290707;28;20379;-70
2022/03/23 12:47:36;;;;;;;26.30;19.88;;;;;;;17.85;26.15;102882.19;5286287;28;20029;-72
2022/03/23 12:58:44;;;;;;;21.55;19.25;;;;;;;18.39;25.48;102868.00;5289163;28;20056;-69
2022/03/23 13:01:21;;;;;;;24.73;20.27;;;;;;;18.49;26.20;102861.47;5293793;28;20032;-70
2022/03/23 13:03:53;;;;;;;40.17;34.53;;;;;;;18.49;25.13;102857.81;5292617;28;20052;-69
2022/03/23 13:06:32;;;;;;;25.20;18.60;;;;;;;18.62;24.49;102860.78;5294696;28;20439;-71
2022/03/23 13:09:12;;;;;;;24.42;17.55;;;;;;;18.79;25.46;102853.88;5307061;28;20035;-70
2022/03/23 13:11:56;;;;;;;24.02;17.45;;;;;;;18.98;25.33;102852.00;5287932;28;20082;-69
2022/03/23 13:14:28;;;;;;;21.88;17.50;;;;;;;18.95;25.37;102846.97;5298183;28;20402;-70
2022/03/23 13:17:00;;;;;;;23.08;18.25;;;;;;;18.96;24.97;102848.63;5287256;28;20048;-70
2022/03/23 13:19:37;;;;;;;23.65;18.40;;;;;;;19.11;24.93;102842.84;5291543;28;20024;-71
2022/03/23 13:22:08;;;;;;;23.55;16.23;;;;;;;19.22;25.87;102834.28;5307106;28;20391;-69
2022/03/23 13:24:40;;;;;;;22.42;18.05;;;;;;;19.26;25.88;102787.53;5306429;28;20036;-70
2022/03/23 13:27:12;;;;;;;21.52;19.17;;;;;;;19.11;25.51;102797.84;5304695;28;20180;-70
2022/03/23 13:29:43;;;;;;;23.63;19.77;;;;;;;19.32;24.51;102815.28;5306814;28;20073;-71
2022/03/23 13:32:16;;;;;;;25.50;21.35;;;;;;;19.18;24.62;102833.22;5298457;28;20024;-69
2022/03/23 13:34:55;;;;;;;22.40;17.95;;;;;;;19.41;24.83;102825.88;5305607;28;20034;-69
2022/03/23 13:37:26;;;;;;;25.23;21.05;;;;;;;19.21;24.41;102832.59;5320665;28;20032;-69
2022/03/23 13:40:00;;;;;;;23.05;20.15;;;;;;;19.35;25.32;102827.91;5292674;28;20074;-70
2022/03/23 13:45:21;;;;;;;26.40;19.83;;;;;;;19.39;23.88;102828.16;5291572;28;20166;-71
2022/03/23 13:47:52;;;;;;;25.13;20.45;;;;;;;19.26;23.83;102824.09;5291137;28;20103;-70
2022/03/23 13:50:26;;;;;;;26.75;20.42;;;;;;;19.31;24.23;102819.25;5306322;28;20383;-70
2022/03/23 13:52:57;;;;;;;25.42;19.02;;;;;;;19.41;24.21;102812.66;5304404;28;20391;-71
2022/03/23 13:55:28;;;;;;;25.25;20.23;;;;;;;19.49;24.19;102823.22;5304378;28;20015;-71
2022/03/23 13:58:00;;;;;;;22.10;19.45;;;;;;;19.51;24.24;102820.94;5307764;28;20059;-70
2022/03/23 14:00:33;;;;;;;23.10;19.25;;;;;;;19.57;24.95;102815.25;5303592;28;20039;-70
2022/03/23 14:03:04;;;;;;;25.05;19.92;;;;;;;19.68;23.87;102817.63;5284538;28;20024;-70
2022/03/23 14:05:36;;;;;;;22.83;19.88;;;;;;;19.57;24.19;102815.25;5290480;28;20031;-70
2022/03/23 14:08:14;;;;;;;25.98;19.38;;;;;;;19.67;24.42;102812.31;5285984;28;20456;-70
2022/03/23 14:10:48;;;;;;;22.63;19.35;;;;;;;19.65;24.63;102808.94;5284060;28;20075;-71
2022/03/23 14:13:20;;;;;;;23.65;20.77;;;;;;;19.62;24.54;102815.16;5289586;28;20033;-71
2022/03/23 14:15:53;;;;;;;32.20;22.25;;;;;;;19.44;24.14;102809.22;5292214;28;20344;-73
2022/03/23 14:18:26;;;;;;;22.48;20.00;;;;;;;19.43;24.80;102803.88;5291426;28;20046;-72
2022/03/23 14:21:00;;;;;;;22.92;20.52;;;;;;;19.47;24.12;102802.97;5304938;28;20043;-73
2022/03/23 14:23:32;;;;;;;26.05;20.38;;;;;;;19.72;25.13;102801.81;5304007;28;20031;-72
2022/03/23 14:26:27;;;;;;;22.55;19.30;;;;;;;19.91;24.35;102798.13;5305267;28;20024;-73
2022/03/23 14:29:17;;;;;;;25.08;20.67;;;;;;;19.84;23.95;102795.72;5296246;28;20115;-73
2022/03/23 14:31:50;;;;;;;28.08;23.13;;;;;;;19.95;24.15;102794.41;5283521;28;20039;-71
2022/03/23 14:34:26;;;;;;;21.70;19.35;;;;;;;19.71;24.76;102796.47;5284346;28;20042;-74
2022/03/23 14:37:13;;;;;;;24.52;20.45;;;;;;;19.89;24.64;102791.97;5284212;28;20829;-73
2022/03/23 14:39:46;;;;;;;25.75;19.88;;;;;;;19.92;24.71;102791.38;5296635;28;20036;-72
2022/03/23 14:42:20;;;;;;;21.65;18.20;;;;;;;20.00;24.10;102784.22;5290706;28;20062;-74
2022/03/23 14:44:51;;;;;;;22.67;17.92;;;;;;;20.00;23.90;102789.84;5282647;28;20032;-73
2022/03/23 14:47:48;;;;;;;25.73;20.30;;;;;;;20.02;24.42;102790.34;5284184;28;20036;-72
2022/03/23 14:50:20;;;;;;;29.85;20.38;;;;;;;19.77;23.79;102784.00;5283981;28;20107;-73
2022/03/23 14:52:51;;;;;;;23.55;20.50;;;;;;;19.75;24.14;102792.75;5286608;28;20287;-74
2022/03/23 14:55:23;;;;;;;22.85;20.23;;;;;;;19.82;24.06;102795.19;5286262;28;20024;-74
2022/03/23 14:57:55;;;;;;;24.33;19.30;;;;;;;19.85;23.88;102785.28;5297418;28;20045;-73
2022/03/23 15:00:26;;;;;;;33.20;25.70;;;;;;;20.02;24.40;102784.72;5283225;28;20031;-73
2022/03/23 15:02:58;;;;;;;25.77;20.98;;;;;;;20.06;24.26;102780.16;5293138;28;20074;-73
2022/03/23 15:14:00;;;;;;;28.65;20.52;;;;;;;19.72;23.81;102770.00;5283841;28;20044;-73
2022/03/23 15:16:33;;;;;;;68.22;60.50;;;;;;;19.66;24.49;102771.19;5282686;28;20028;-72
2022/03/23 15:19:06;;;;;;;26.77;19.88;;;;;;;19.78;24.81;102765.97;5282914;28;20391;-73
2022/03/23 15:21:39;;;;;;;22.75;19.02;;;;;;;19.71;23.98;102762.69;5282850;28;20173;-72
2022/03/23 15:24:10;;;;;;;22.85;19.85;;;;;;;19.85;23.82;102774.03;5283121;28;20024;-72
2022/03/23 15:26:42;;;;;;;22.88;19.33;;;;;;;19.83;24.32;102756.59;5291379;28;20483;-73
2022/03/23 15:29:13;;;;;;;23.85;19.45;;;;;;;19.82;24.45;102767.03;5301712;28;20027;-72
2022/03/23 15:31:45;;;;;;;22.00;18.13;;;;;;;19.79;24.27;102763.97;5298825;28;20028;-72
2022/03/23 15:34:16;;;;;;;21.80;18.73;;;;;;;19.65;23.41;102767.53;5303267;28;20050;-71
2022/03/23 15:36:49;;;;;;;24.83;18.58;;;;;;;19.69;23.98;102763.03;5303880;28;20031;-72
2022/03/23 15:39:20;;;;;;;22.95;18.05;;;;;;;19.73;24.63;102752.81;5294887;28;20104;-72
2022/03/23 15:41:53;;;;;;;20.92;17.08;;;;;;;19.72;24.90;102759.59;5303388;28;20053;-72
2022/03/23 15:44:25;;;;;;;24.63;18.35;;;;;;;19.83;24.39;102756.59;5288313;28;20028;-72
2022/03/23 15:46:56;;;;;;;26.50;18.65;;;;;;;19.82;23.92;102752.13;5290682;28;20376;-73
2022/03/23 15:49:28;;;;;;;21.95;18.23;;;;;;;19.82;24.30;102757.75;5303375;28;20035;-73
2022/03/23 15:51:59;;;;;;;22.33;19.25;;;;;;;19.81;24.69;102753.25;5303857;28;20395;-72
2022/03/23 15:54:30;;;;;;;28.55;20.20;;;;;;;19.71;24.17;102746.66;5303355;28;20038;-72
2022/03/23 15:57:02;;;;;;;25.15;18.90;;;;;;;19.60;24.25;102744.28;5302841;28;20056;-72
2022/03/23 15:59:36;;;;;;;23.00;18.55;;;;;;;19.71;24.36;102754.25;5298073;28;20028;-72
2022/03/23 16:02:07;;;;;;;22.90;18.90;;;;;;;19.62;24.38;102748.47;5282076;28;20459;-69
2022/03/23 16:04:38;;;;;;;27.75;18.10;;;;;;;19.66;24.60;102741.09;5283063;28;20150;-71
2022/03/23 16:07:10;;;;;;;21.23;17.80;;;;;;;19.63;24.13;102749.28;5288477;28;20375;-72
2022/03/23 16:09:43;;;;;;;21.65;18.40;;;;;;;19.50;24.08;102748.06;5291167;28;20028;-72
2022/03/23 16:12:14;;;;;;;22.90;18.10;;;;;;;19.51;23.58;102747.78;5285131;28;20020;-73
2022/03/23 16:14:45;;;;;;;22.42;17.65;;;;;;;19.52;23.69;102749.44;5291395;28;20493;-72
2022/03/23 16:17:16;;;;;;;24.92;19.10;;;;;;;19.47;24.00;102757.13;5301797;28;20027;-73
2022/03/23 16:19:48;;;;;;;21.95;17.50;;;;;;;19.29;24.18;102750.34;5291702;28;20475;-73
2022/03/23 16:22:19;;;;;;;30.70;25.13;;;;;;;19.26;23.79;102756.59;5304571;28;20073;-73
2022/03/23 16:24:50;;;;;;;27.70;22.95;;;;;;;19.29;24.91;102750.34;5307989;28;20024;-76
2022/03/23 16:27:21;;;;;;;26.15;18.25;;;;;;;19.13;24.59;102743.28;5307511;28;20028;-69
2022/03/23 16:29:53;;;;;;;22.80;17.75;;;;;;;19.17;24.47;102749.97;5291763;28;20037;-69
2022/03/23 16:32:24;;;;;;;22.10;17.77;;;;;;;19.14;25.46;102747.75;5286175;28;20028;-73
2022/03/23 16:34:56;;;;;;;24.30;19.48;;;;;;;19.10;25.43;102751.19;5292026;28;20052;-71
2022/03/23 16:37:28;;;;;;;24.15;20.20;;;;;;;19.08;25.53;102755.44;5302387;28;20028;-72
2022/03/23 16:39:59;;;;;;;31.45;25.65;;;;;;;18.94;26.41;102749.69;5294005;28;20085;-73
2022/03/23 16:42:31;;;;;;;26.85;21.05;;;;;;;18.88;25.73;102751.75;5306946;28;20027;-71
2022/03/23 16:45:02;;;;;;;25.52;20.75;;;;;;;18.86;25.86;102747.56;5294480;28;20421;-71
2022/03/23 16:47:34;;;;;;;24.40;19.55;;;;;;;18.79;25.55;102758.31;5285968;28;20021;-72
2022/03/23 16:50:06;;;;;;;24.15;19.52;;;;;;;18.64;25.63;102751.72;5286323;28;20024;-71
2022/03/23 16:52:38;;;;;;;24.92;20.85;;;;;;;18.63;25.54;102752.00;5285736;28;20047;-71
2022/03/23 16:55:10;;;;;;;26.33;20.73;;;;;;;18.58;25.86;102757.69;5286742;28;20021;-71
2022/03/23 16:57:41;;;;;;;27.77;20.40;;;;;;;18.51;27.25;102755.25;5285272;28;20048;-70
2022/03/23 17:00:13;;;;;;;26.20;22.35;;;;;;;18.44;26.08;102746.34;5285866;28;20017;-74
2022/03/23 17:14:09;;;;;;;26.85;22.67;;;;;;;18.11;26.44;102762.94;5303742;28;20068;-77
2022/03/23 17:16:41;;;;;;;25.58;21.60;;;;;;;18.02;26.69;102770.31;5298200;28;20040;-77
2022/03/23 17:19:16;;;;;;;513.80;457.67;;;;;;;18.00;26.80;102769.78;5306555;28;20051;-76
2022/03/23 17:21:48;;;;;;;46.60;36.33;;;;;;;17.98;26.78;102766.44;5307098;28;20030;-76
2022/03/23 17:24:22;;;;;;;28.80;23.70;;;;;;;17.93;26.56;102766.47;5303117;28;20525;-75
2022/03/23 17:26:54;;;;;;;28.77;22.05;;;;;;;17.88;26.54;102769.31;5285691;28;20029;-75
2022/03/23 17:29:26;;;;;;;25.95;23.08;;;;;;;17.83;26.97;102769.34;5285551;28;20025;-76
